createdAt,value
2018-08-13T00:01:43.592Z,17.60
2018-08-13T00:04:14.150Z,17.60
2018-08-13T00:06:44.601Z,17.60
2018-08-13T00:09:19.675Z,17.60
2018-08-13T00:11:50.176Z,17.60
2018-08-13T00:14:20.813Z,17.60
2018-08-13T00:16:51.259Z,17.60
2018-08-13T00:19:21.795Z,17.60
2018-08-13T00:21:52.372Z,17.60
2018-08-13T00:24:22.780Z,17.60
2018-08-13T00:26:53.487Z,17.60
2018-08-13T00:29:24.077Z,17.60
2018-08-13T00:31:54.614Z,17.60
2018-08-13T00:34:25.299Z,17.60
2018-08-13T00:36:55.877Z,17.60
2018-08-13T00:39:26.638Z,17.60
2018-08-13T00:41:57.236Z,17.60
2018-08-13T00:44:27.873Z,17.60
2018-08-13T00:46:58.279Z,17.50
2018-08-13T00:49:28.801Z,17.60
2018-08-13T00:51:59.401Z,17.60
2018-08-13T00:54:29.759Z,17.50
2018-08-13T00:57:00.302Z,17.60
2018-08-13T00:59:31.069Z,17.60
2018-08-13T01:02:01.564Z,17.60
2018-08-13T01:04:32.077Z,17.50
2018-08-13T01:07:03.067Z,17.50
2018-08-13T01:09:33.925Z,17.50
2018-08-13T01:12:04.525Z,17.50
2018-08-13T01:14:35.257Z,17.50
2018-08-13T01:17:05.953Z,17.50
2018-08-13T01:19:36.527Z,17.50
2018-08-13T01:22:07.480Z,17.50
2018-08-13T01:24:37.919Z,17.50
2018-08-13T01:27:08.763Z,17.50
2018-08-13T01:29:39.207Z,17.50
2018-08-13T01:32:09.712Z,17.50
2018-08-13T01:34:40.376Z,17.50
2018-08-13T01:37:11.007Z,17.50
2018-08-13T01:39:41.658Z,17.50
2018-08-13T01:42:12.263Z,17.50
2018-08-13T01:44:43.029Z,17.50
2018-08-13T01:47:13.624Z,17.50
2018-08-13T01:49:44.088Z,17.50
2018-08-13T01:52:15.153Z,17.50
2018-08-13T01:54:45.575Z,17.50
2018-08-13T01:57:16.104Z,17.50
2018-08-13T01:59:46.650Z,17.50
2018-08-13T02:02:17.111Z,17.50
2018-08-13T02:04:47.821Z,17.50
2018-08-13T02:07:18.688Z,17.50
2018-08-13T02:09:49.097Z,17.50
2018-08-13T02:12:19.786Z,17.50
2018-08-13T02:14:50.161Z,17.50
2018-08-13T02:17:20.978Z,17.50
2018-08-13T02:19:51.408Z,17.50
2018-08-13T02:22:21.981Z,17.40
2018-08-13T02:24:52.705Z,17.50
2018-08-13T02:27:23.400Z,17.40
2018-08-13T02:29:53.996Z,17.50
2018-08-13T02:32:24.796Z,17.50
2018-08-13T02:34:55.223Z,17.50
2018-08-13T02:37:25.959Z,17.50
2018-08-13T02:39:56.552Z,17.40
2018-08-13T02:42:27.089Z,17.40
2018-08-13T02:44:57.543Z,17.40
2018-08-13T02:47:28.148Z,17.40
2018-08-13T02:49:58.587Z,17.40
2018-08-13T02:52:29.189Z,17.40
2018-08-13T02:54:59.726Z,17.40
2018-08-13T02:57:30.288Z,17.40
2018-08-13T03:00:00.726Z,17.40
2018-08-13T03:02:31.393Z,17.40
2018-08-13T03:05:01.779Z,17.40
2018-08-13T03:07:32.288Z,17.40
2018-08-13T03:10:03.037Z,17.40
2018-08-13T03:12:33.723Z,17.40
2018-08-13T03:15:04.675Z,17.40
2018-08-13T03:17:35.593Z,17.40
2018-08-13T03:20:07.453Z,17.40
2018-08-13T03:22:38.167Z,17.40
2018-08-13T03:25:10.759Z,17.40
2018-08-13T03:27:41.238Z,17.40
2018-08-13T03:30:13.024Z,17.40
2018-08-13T03:32:43.764Z,17.40
2018-08-13T03:35:14.494Z,17.40
2018-08-13T03:37:45.199Z,17.40
2018-08-13T03:40:15.692Z,17.40
2018-08-13T03:42:46.228Z,17.40
2018-08-13T03:45:17.003Z,17.40
2018-08-13T03:47:47.838Z,17.40
2018-08-13T03:50:18.269Z,17.40
2018-08-13T03:52:48.942Z,17.40
2018-08-13T03:55:19.557Z,17.40
2018-08-13T03:57:50.134Z,17.30
2018-08-13T04:00:20.788Z,17.40
2018-08-13T04:02:51.322Z,17.30
2018-08-13T04:05:22.229Z,17.30
2018-08-13T04:07:52.945Z,17.30
2018-08-13T04:10:23.492Z,17.30
2018-08-13T04:12:54.313Z,17.30
2018-08-13T04:15:25.897Z,17.30
2018-08-13T04:17:56.512Z,17.30
2018-08-13T04:20:27.160Z,17.30
2018-08-13T04:22:57.697Z,17.30
2018-08-13T04:25:28.109Z,17.30
2018-08-13T04:27:58.607Z,17.30
2018-08-13T04:30:29.132Z,17.30
2018-08-13T04:32:59.665Z,17.30
2018-08-13T04:35:30.475Z,17.30
2018-08-13T04:38:00.992Z,17.30
2018-08-13T04:40:31.518Z,17.30
2018-08-13T04:43:02.133Z,17.30
2018-08-13T04:45:32.726Z,17.30
2018-08-13T04:48:03.360Z,17.30
2018-08-13T04:50:34.080Z,17.30
2018-08-13T04:53:04.879Z,17.30
2018-08-13T04:55:35.588Z,17.30
2018-08-13T04:58:06.023Z,17.30
2018-08-13T05:00:36.619Z,17.30
2018-08-13T05:03:07.490Z,17.30
2018-08-13T05:05:38.107Z,17.30
2018-08-13T05:08:08.933Z,17.30
2018-08-13T05:10:39.677Z,17.30
2018-08-13T05:13:10.214Z,17.30
2018-08-13T05:15:41.043Z,17.30
2018-08-13T05:18:11.564Z,17.30
2018-08-13T05:20:42.119Z,17.30
2018-08-13T05:23:12.545Z,17.30
2018-08-13T05:25:43.302Z,17.30
2018-08-13T05:28:14.045Z,17.30
2018-08-13T05:30:44.680Z,17.30
2018-08-13T05:33:15.273Z,17.30
2018-08-13T05:35:45.829Z,17.30
2018-08-13T05:38:16.562Z,17.30
2018-08-13T05:40:47.036Z,17.30
2018-08-13T05:43:17.744Z,17.30
2018-08-13T05:45:48.271Z,17.30
2018-08-13T05:48:18.929Z,17.30
2018-08-13T05:50:49.428Z,17.30
2018-08-13T05:53:20.033Z,17.30
2018-08-13T05:55:50.444Z,17.30
2018-08-13T05:58:21.140Z,17.30
2018-08-13T06:00:51.980Z,17.30
2018-08-13T06:03:22.436Z,17.40
2018-08-13T06:05:52.991Z,17.40
2018-08-13T06:08:29.755Z,17.30
2018-08-13T06:11:08.651Z,17.30
2018-08-13T06:13:39.616Z,17.30
2018-08-13T06:16:10.013Z,17.40
2018-08-13T06:18:41.226Z,17.40
2018-08-13T06:21:11.956Z,17.40
2018-08-13T06:23:42.528Z,17.40
2018-08-13T06:26:12.944Z,17.40
2018-08-13T06:28:43.864Z,17.40
2018-08-13T06:31:14.560Z,17.40
2018-08-13T06:33:44.965Z,17.40
2018-08-13T06:36:15.491Z,17.40
2018-08-13T06:38:46.169Z,17.40
2018-08-13T06:41:16.816Z,17.40
2018-08-13T06:43:47.267Z,17.40
2018-08-13T06:46:17.923Z,17.50
2018-08-13T06:48:48.348Z,17.50
2018-08-13T06:51:18.894Z,17.50
2018-08-13T06:53:50.325Z,17.50
2018-08-13T06:56:20.961Z,17.50
2018-08-13T06:58:51.590Z,17.50
2018-08-13T07:01:21.985Z,17.50
2018-08-13T07:03:52.525Z,17.50
2018-08-13T07:06:23.266Z,17.50
2018-08-13T07:08:53.912Z,17.50
2018-08-13T07:11:24.610Z,17.50
2018-08-13T07:13:55.224Z,17.50
2018-08-13T07:16:25.868Z,17.50
2018-08-13T07:18:56.395Z,17.50
2018-08-13T07:21:26.823Z,17.60
2018-08-13T07:23:57.393Z,17.60
2018-08-13T07:26:28.102Z,17.60
2018-08-13T07:28:58.952Z,17.60
2018-08-13T07:31:29.564Z,17.60
2018-08-13T07:34:00.289Z,17.60
2018-08-13T07:36:30.889Z,17.60
2018-08-13T07:39:01.416Z,17.60
2018-08-13T07:41:31.977Z,17.60
2018-08-13T07:44:02.620Z,17.60
2018-08-13T07:46:33.312Z,17.60
2018-08-13T07:49:04.161Z,17.70
2018-08-13T07:51:34.751Z,17.70
2018-08-13T07:54:05.510Z,17.70
2018-08-13T07:56:36.200Z,17.70
2018-08-13T07:59:06.694Z,17.70
2018-08-13T08:01:37.387Z,17.70
2018-08-13T08:04:07.896Z,17.70
2018-08-13T08:06:38.373Z,17.70
2018-08-13T08:09:11.353Z,17.70
2018-08-13T08:11:42.403Z,17.70
2018-08-13T08:14:13.204Z,17.70
2018-08-13T08:16:44.101Z,17.80
2018-08-13T08:19:14.557Z,17.70
2018-08-13T08:21:45.423Z,17.80
2018-08-13T08:24:15.997Z,17.80
2018-08-13T08:26:46.513Z,17.80
2018-08-13T08:29:17.428Z,17.80
2018-08-13T08:31:48.289Z,17.80
2018-08-13T08:34:18.817Z,17.80
2018-08-13T08:36:49.729Z,17.80
2018-08-13T08:39:20.381Z,17.80
2018-08-13T08:41:51.146Z,17.80
2018-08-13T08:44:21.701Z,17.80
2018-08-13T08:46:52.476Z,17.80
2018-08-13T08:49:23.155Z,17.80
2018-08-13T08:51:53.908Z,17.80
2018-08-13T08:54:24.425Z,17.80
2018-08-13T08:56:55.018Z,17.90
2018-08-13T08:59:25.711Z,17.90
2018-08-13T09:01:56.245Z,17.90
2018-08-13T09:04:26.629Z,17.90
2018-08-13T09:06:57.216Z,17.90
2018-08-13T09:09:27.754Z,17.90
2018-08-13T09:11:58.296Z,17.90
2018-08-13T09:14:28.897Z,17.90
2018-08-13T09:16:59.732Z,17.90
2018-08-13T09:19:40.937Z,18.00
2018-08-13T09:22:22.167Z,18.00
2018-08-13T09:25:03.497Z,18.00
2018-08-13T09:27:44.699Z,18.00
2018-08-13T09:30:26.061Z,18.00
2018-08-13T09:33:07.220Z,18.00
2018-08-13T09:35:37.966Z,18.00
2018-08-13T09:38:08.619Z,18.10
2018-08-13T09:40:39.266Z,18.10
2018-08-13T09:43:09.949Z,18.10
2018-08-13T09:45:40.597Z,18.10
2018-08-13T09:48:11.373Z,18.10
2018-08-13T09:50:41.988Z,18.10
2018-08-13T09:53:12.726Z,18.10
2018-08-13T09:55:43.249Z,18.10
2018-08-13T09:58:14.154Z,18.10
2018-08-13T10:00:50.071Z,18.10
2018-08-13T10:03:20.723Z,18.10
2018-08-13T10:05:51.316Z,18.20
2018-08-13T10:08:21.876Z,18.20
2018-08-13T10:10:52.475Z,18.20
2018-08-13T10:13:22.988Z,18.20
2018-08-13T10:15:53.722Z,18.20
2018-08-13T10:18:24.118Z,18.20
2018-08-13T10:20:54.785Z,18.20
2018-08-13T10:23:25.519Z,18.20
2018-08-13T10:25:56.471Z,18.20
2018-08-13T10:28:26.994Z,18.20
2018-08-13T10:30:57.626Z,18.20
2018-08-13T10:33:28.244Z,18.20
2018-08-13T10:35:59.011Z,18.20
2018-08-13T10:38:29.719Z,18.30
2018-08-13T10:41:00.300Z,18.30
2018-08-13T10:43:30.738Z,18.30
2018-08-13T10:46:01.327Z,18.30
2018-08-13T10:48:31.845Z,18.30
2018-08-13T10:51:02.372Z,18.30
2018-08-13T10:53:32.895Z,18.30
2018-08-13T10:56:03.589Z,18.30
2018-08-13T10:58:34.286Z,18.30
2018-08-13T11:01:05.039Z,18.40
2018-08-13T11:03:36.004Z,18.40
2018-08-13T11:06:06.808Z,18.40
2018-08-13T11:08:37.537Z,18.40
2018-08-13T11:11:08.345Z,18.40
2018-08-13T11:13:38.997Z,18.40
2018-08-13T11:16:09.839Z,18.50
2018-08-13T11:18:40.372Z,18.50
2018-08-13T11:21:11.126Z,18.50
2018-08-13T11:23:42.031Z,18.50
2018-08-13T11:26:13.250Z,18.50
2018-08-13T11:28:43.792Z,18.50
2018-08-13T11:31:14.686Z,18.60
2018-08-13T11:33:45.451Z,18.60
2018-08-13T11:36:15.853Z,18.60
2018-08-13T11:38:46.549Z,18.60
2018-08-13T11:41:17.041Z,18.60
2018-08-13T11:43:47.625Z,18.60
2018-08-13T11:46:18.198Z,18.60
2018-08-13T11:48:48.656Z,18.60
2018-08-13T11:51:19.320Z,18.60
2018-08-13T11:53:50.001Z,18.60
2018-08-13T11:56:20.643Z,18.60
2018-08-13T11:58:51.222Z,18.60
2018-08-13T12:01:21.881Z,18.60
2018-08-13T12:03:52.778Z,18.60
2018-08-13T12:06:23.333Z,18.60
2018-08-13T12:08:54.169Z,18.60
2018-08-13T12:11:24.704Z,18.60
2018-08-13T12:13:55.162Z,18.60
2018-08-13T12:16:25.672Z,18.70
2018-08-13T12:18:56.498Z,18.70
2018-08-13T12:21:26.904Z,18.70
2018-08-13T12:23:57.474Z,18.70
2018-08-13T12:26:28.139Z,18.70
2018-08-13T12:28:59.066Z,18.70
2018-08-13T12:31:29.853Z,18.70
2018-08-13T12:34:00.596Z,18.70
2018-08-13T12:36:31.360Z,18.70
2018-08-13T12:39:02.089Z,18.80
2018-08-13T12:41:32.619Z,18.80
2018-08-13T12:44:03.343Z,18.80
2018-08-13T12:46:34.053Z,18.80
2018-08-13T12:49:04.686Z,18.90
2018-08-13T12:51:35.426Z,18.90
2018-08-13T12:54:05.857Z,18.90
2018-08-13T12:56:36.628Z,18.90
2018-08-13T12:59:07.344Z,18.90
2018-08-13T13:01:37.850Z,18.90
2018-08-13T13:04:08.419Z,18.90
2018-08-13T13:06:39.127Z,18.90
2018-08-13T13:09:11.546Z,18.90
2018-08-13T13:11:42.500Z,18.90
2018-08-13T13:14:13.333Z,18.90
2018-08-13T13:16:44.135Z,18.90
2018-08-13T13:19:14.863Z,18.90
2018-08-13T13:21:45.598Z,19.00
2018-08-13T13:24:16.385Z,18.90
2018-08-13T13:26:46.836Z,18.90
2018-08-13T13:29:17.332Z,18.90
2018-08-13T13:31:49.320Z,18.90
2018-08-13T13:34:20.060Z,18.90
2018-08-13T13:36:50.825Z,18.90
2018-08-13T13:39:21.804Z,18.90
2018-08-13T13:41:52.341Z,18.90
2018-08-13T13:44:23.045Z,18.90
2018-08-13T13:46:53.813Z,18.90
2018-08-13T13:49:24.515Z,19.00
2018-08-13T13:51:55.167Z,19.00
2018-08-13T13:54:25.821Z,19.00
2018-08-13T13:56:56.543Z,19.00
2018-08-13T13:59:27.040Z,19.00
2018-08-13T14:01:57.929Z,19.00
2018-08-13T14:04:28.734Z,19.00
2018-08-13T14:06:59.412Z,19.00
2018-08-13T14:09:29.990Z,19.00
2018-08-13T14:12:00.644Z,19.10
2018-08-13T14:14:31.215Z,19.00
2018-08-13T14:17:01.607Z,19.10
2018-08-13T14:19:32.126Z,19.10
2018-08-13T14:22:02.923Z,19.10
2018-08-13T14:24:33.465Z,19.10
2018-08-13T14:27:04.429Z,19.10
2018-08-13T14:29:35.235Z,19.10
2018-08-13T14:32:05.877Z,19.10
2018-08-13T14:34:36.803Z,19.10
2018-08-13T14:37:07.682Z,19.10
2018-08-13T14:39:38.348Z,19.10
2018-08-13T14:42:09.519Z,19.10
2018-08-13T14:44:40.496Z,19.10
2018-08-13T14:47:11.201Z,19.10
2018-08-13T14:49:42.119Z,19.10
2018-08-13T14:52:12.712Z,19.20
2018-08-13T14:54:43.121Z,19.20
2018-08-13T14:57:13.884Z,19.20
2018-08-13T14:59:44.564Z,19.20
2018-08-13T15:02:14.966Z,19.20
2018-08-13T15:04:45.920Z,19.20
2018-08-13T15:07:16.390Z,19.20
2018-08-13T15:09:48.148Z,19.20
2018-08-13T15:12:18.715Z,19.20
2018-08-13T15:14:49.191Z,19.20
2018-08-13T15:17:19.999Z,19.20
2018-08-13T15:19:50.770Z,19.30
2018-08-13T15:22:21.498Z,19.30
2018-08-13T15:24:52.259Z,19.30
2018-08-13T15:27:23.182Z,19.30
2018-08-13T15:29:53.707Z,19.30
2018-08-13T15:32:24.683Z,19.30
2018-08-13T15:34:58.736Z,19.30
2018-08-13T15:37:35.244Z,19.30
2018-08-13T15:40:08.741Z,19.30
2018-08-13T15:42:40.009Z,19.30
2018-08-13T15:45:15.743Z,19.30
2018-08-13T15:47:47.877Z,19.30
2018-08-13T15:50:20.191Z,19.30
2018-08-13T15:52:51.382Z,19.40
2018-08-13T15:55:22.069Z,19.40
2018-08-13T15:57:52.722Z,19.40
2018-08-13T16:00:27.002Z,19.40
2018-08-13T16:02:57.746Z,19.40
2018-08-13T16:05:28.511Z,19.40
2018-08-13T16:08:05.759Z,19.40
2018-08-13T16:10:43.933Z,19.40
2018-08-13T16:13:15.008Z,19.40
2018-08-13T16:15:45.654Z,19.40
2018-08-13T16:18:16.338Z,19.40
2018-08-13T16:20:46.838Z,19.40
2018-08-13T16:23:17.510Z,19.40
2018-08-13T16:25:48.745Z,19.40
2018-08-13T16:28:20.972Z,19.40
2018-08-13T16:30:52.121Z,19.50
2018-08-13T16:33:23.405Z,19.70
2018-08-13T16:35:54.448Z,19.80
2018-08-13T16:38:25.483Z,19.80
2018-08-13T16:40:57.557Z,19.80
2018-08-13T16:43:28.440Z,19.90
2018-08-13T16:45:59.095Z,20.00
2018-08-13T16:48:30.104Z,20.20
2018-08-13T16:51:01.065Z,20.30
2018-08-13T16:53:31.928Z,20.40
2018-08-13T16:56:03.142Z,20.40
2018-08-13T16:58:34.050Z,20.50
2018-08-13T17:01:04.930Z,20.50
2018-08-13T17:03:42.479Z,20.50
2018-08-13T17:06:22.036Z,20.50
2018-08-13T17:08:55.706Z,20.60
2018-08-13T17:11:31.486Z,20.60
2018-08-13T17:14:02.338Z,20.60
2018-08-13T17:16:33.070Z,20.60
2018-08-13T17:19:03.531Z,20.60
2018-08-13T17:21:34.313Z,20.60
2018-08-13T17:24:05.959Z,20.60
2018-08-13T17:26:36.587Z,20.60
2018-08-13T17:29:07.627Z,20.60
2018-08-13T17:31:38.885Z,20.60
2018-08-13T17:34:10.576Z,20.60
2018-08-13T17:36:41.137Z,20.70
2018-08-13T17:39:14.672Z,20.70
2018-08-13T17:41:45.480Z,20.70
2018-08-13T17:44:28.453Z,20.60
2018-08-13T17:46:59.103Z,20.60
2018-08-13T17:49:29.790Z,20.70
2018-08-13T17:52:00.502Z,20.70
2018-08-13T17:54:31.310Z,20.70
2018-08-13T17:57:02.107Z,20.70
2018-08-13T17:59:32.889Z,20.70
2018-08-13T18:02:03.753Z,20.70
2018-08-13T18:04:34.270Z,20.70
2018-08-13T18:07:05.350Z,20.70
2018-08-13T18:09:36.731Z,20.70
2018-08-13T18:12:07.409Z,20.60
2018-08-13T18:14:37.990Z,20.70
2018-08-13T18:17:08.992Z,20.70
2018-08-13T18:19:39.656Z,20.70
2018-08-13T18:22:10.364Z,20.70
2018-08-13T18:24:40.884Z,20.70
2018-08-13T18:27:11.435Z,20.60
2018-08-13T18:29:42.008Z,20.70
2018-08-13T18:32:12.725Z,20.70
2018-08-13T18:34:43.184Z,20.70
2018-08-13T18:37:13.784Z,20.70
2018-08-13T18:39:44.337Z,20.70
2018-08-13T18:42:15.082Z,20.70
2018-08-13T18:44:45.985Z,20.70
2018-08-13T18:47:16.631Z,20.70
2018-08-13T18:49:47.230Z,20.60
2018-08-13T18:52:18.207Z,20.60
2018-08-13T18:54:48.906Z,20.60
2018-08-13T18:57:19.576Z,20.60
2018-08-13T18:59:50.113Z,20.60
2018-08-13T19:02:20.677Z,20.60
2018-08-13T19:04:51.844Z,20.60
2018-08-13T19:07:22.467Z,20.60
2018-08-13T19:09:53.084Z,20.60
2018-08-13T19:12:24.099Z,20.60
2018-08-13T19:14:55.663Z,20.60
2018-08-13T19:17:26.433Z,20.60
2018-08-13T19:19:59.541Z,20.60
2018-08-13T19:22:30.214Z,20.60
2018-08-13T19:25:00.935Z,20.60
2018-08-13T19:27:31.516Z,20.60
2018-08-13T19:30:02.381Z,20.60
2018-08-13T19:32:32.944Z,20.60
2018-08-13T19:35:03.621Z,20.60
2018-08-13T19:37:34.117Z,20.60
2018-08-13T19:40:05.619Z,20.60
2018-08-13T19:42:36.350Z,20.60
2018-08-13T19:45:14.760Z,20.60
2018-08-13T19:47:51.138Z,20.60
2018-08-13T19:50:21.884Z,20.60
2018-08-13T19:52:52.441Z,20.50
2018-08-13T19:55:23.299Z,20.50
2018-08-13T19:57:53.986Z,20.50
2018-08-13T20:00:27.176Z,20.50
2018-08-13T20:02:57.793Z,20.50
2018-08-13T20:05:29.191Z,20.50
2018-08-13T20:08:00.418Z,20.50
2018-08-13T20:10:32.645Z,20.40
2018-08-13T20:13:03.352Z,20.50
2018-08-13T20:15:34.027Z,20.50
2018-08-13T20:18:04.763Z,20.50
2018-08-13T20:20:35.559Z,20.50
2018-08-13T20:23:06.333Z,20.40
2018-08-13T20:25:36.727Z,20.50
2018-08-13T20:28:07.395Z,20.40
2018-08-13T20:30:37.959Z,20.40
2018-08-13T20:33:09.745Z,20.40
2018-08-13T20:35:40.652Z,20.40
2018-08-13T20:38:11.868Z,20.40
2018-08-13T20:40:42.450Z,20.40
2018-08-13T20:43:13.186Z,20.40
2018-08-13T20:45:43.835Z,20.40
2018-08-13T20:48:14.686Z,20.40
2018-08-13T20:50:45.354Z,20.30
2018-08-13T20:53:15.909Z,20.30
2018-08-13T20:55:46.250Z,20.30
2018-08-13T20:58:16.878Z,20.30
2018-08-13T21:00:47.405Z,20.30
2018-08-13T21:03:17.915Z,20.30
2018-08-13T21:05:48.669Z,20.30
2018-08-13T21:08:19.353Z,20.30
2018-08-13T21:10:49.878Z,20.30
2018-08-13T21:13:20.365Z,20.30
2018-08-13T21:15:51.311Z,20.30
2018-08-13T21:18:21.873Z,20.30
2018-08-13T21:20:52.422Z,20.20
2018-08-13T21:23:22.833Z,20.20
2018-08-13T21:25:53.457Z,20.20
2018-08-13T21:28:24.169Z,20.20
2018-08-13T21:30:54.821Z,20.20
2018-08-13T21:33:25.400Z,20.20
2018-08-13T21:35:56.281Z,20.20
2018-08-13T21:38:26.790Z,20.20
2018-08-13T21:40:57.488Z,20.20
2018-08-13T21:43:28.136Z,20.20
2018-08-13T21:45:58.932Z,20.20
2018-08-13T21:48:29.658Z,20.10
2018-08-13T21:51:00.201Z,20.10
2018-08-13T21:53:30.753Z,20.10
2018-08-13T21:56:01.469Z,20.10
2018-08-13T21:58:31.970Z,20.10
2018-08-13T22:01:07.813Z,20.10
2018-08-13T22:03:38.423Z,20.10
2018-08-13T22:06:09.103Z,20.10
2018-08-13T22:08:39.614Z,20.10
2018-08-13T22:11:10.758Z,20.10
2018-08-13T22:13:41.349Z,20.10
2018-08-13T22:16:11.916Z,20.00
2018-08-13T22:18:42.417Z,20.00
2018-08-13T22:21:13.576Z,20.00
2018-08-13T22:23:54.869Z,20.00
2018-08-13T22:26:25.356Z,20.00
2018-08-13T22:28:56.133Z,20.00
2018-08-13T22:31:26.681Z,20.00
2018-08-13T22:33:57.370Z,20.00
2018-08-13T22:36:28.085Z,20.00
2018-08-13T22:38:58.740Z,20.00
2018-08-13T22:41:30.208Z,19.90
2018-08-13T22:44:00.838Z,19.90
2018-08-13T22:46:31.280Z,19.90
2018-08-13T22:49:01.826Z,19.90
2018-08-13T22:51:32.357Z,19.90
2018-08-13T22:54:03.041Z,19.90
2018-08-13T22:56:33.614Z,19.90
2018-08-13T22:59:04.424Z,19.90
2018-08-13T23:01:35.187Z,19.90
2018-08-13T23:04:06.068Z,19.90
2018-08-13T23:06:36.577Z,19.80
2018-08-13T23:09:09.745Z,19.80
2018-08-13T23:11:40.434Z,19.80
2018-08-13T23:14:11.009Z,19.80
2018-08-13T23:16:41.410Z,19.80
2018-08-13T23:19:11.984Z,19.80
2018-08-13T23:21:42.580Z,19.80
2018-08-13T23:24:12.981Z,19.80
2018-08-13T23:26:43.697Z,19.80
2018-08-13T23:29:14.215Z,19.80
2018-08-13T23:31:44.769Z,19.80
2018-08-13T23:34:15.411Z,19.70
2018-08-13T23:36:46.288Z,19.70
2018-08-13T23:39:16.740Z,19.70
2018-08-13T23:41:47.502Z,19.70
2018-08-13T23:44:18.023Z,19.70
2018-08-13T23:46:48.831Z,19.70
2018-08-13T23:49:19.433Z,19.70
2018-08-13T23:51:49.842Z,19.70
2018-08-13T23:54:20.511Z,19.70
2018-08-13T23:56:51.345Z,19.70
2018-08-13T23:59:22.001Z,19.70
